createdAt,value
2023-03-06T00:02:05.397Z,4.47
2023-03-06T00:04:33.142Z,4.45
2023-03-06T00:07:00.775Z,4.43
2023-03-06T00:09:28.472Z,4.50
2023-03-06T00:11:56.152Z,4.60
2023-03-06T00:14:25.184Z,4.61
2023-03-06T00:16:56.024Z,4.58
2023-03-06T00:19:24.250Z,4.55
2023-03-06T00:21:51.993Z,4.56
2023-03-06T00:24:19.692Z,4.42
2023-03-06T00:26:47.423Z,4.40
2023-03-06T00:29:15.163Z,4.30
2023-03-06T00:31:47.925Z,4.44
2023-03-06T00:34:16.033Z,4.44
2023-03-06T00:36:43.707Z,4.37
2023-03-06T00:39:11.505Z,4.26
2023-03-06T00:41:39.207Z,4.50
2023-03-06T00:44:06.943Z,4.45
2023-03-06T00:46:34.821Z,4.43
2023-03-06T00:49:05.176Z,4.31
2023-03-06T00:51:32.866Z,4.38
2023-03-06T00:54:00.541Z,4.35
2023-03-06T00:56:29.971Z,4.33
2023-03-06T00:58:57.680Z,4.37
2023-03-06T01:01:26.457Z,4.38
2023-03-06T01:03:54.135Z,4.48
2023-03-06T01:06:23.356Z,4.49
2023-03-06T01:08:51.050Z,4.34
2023-03-06T01:11:18.854Z,4.26
2023-03-06T01:13:46.703Z,4.26
2023-03-06T01:16:16.877Z,4.38
2023-03-06T01:18:44.614Z,4.28
2023-03-06T01:21:12.772Z,4.34
2023-03-06T01:23:42.017Z,4.40
2023-03-06T01:26:11.468Z,4.32
2023-03-06T01:28:40.490Z,4.34
2023-03-06T01:31:09.433Z,4.20
2023-03-06T01:33:37.655Z,4.15
2023-03-06T01:36:07.769Z,4.25
2023-03-06T01:38:36.194Z,4.23
2023-03-06T01:41:06.832Z,4.07
2023-03-06T01:43:36.206Z,4.16
2023-03-06T01:46:29.314Z,4.23
2023-03-06T01:48:59.843Z,4.27
2023-03-06T01:51:31.260Z,4.22
2023-03-06T01:54:02.637Z,4.11
2023-03-06T01:56:32.005Z,4.10
2023-03-06T01:58:59.841Z,4.15
2023-03-06T02:01:27.780Z,4.18
2023-03-06T02:03:56.512Z,4.27
2023-03-06T02:06:24.141Z,4.15
2023-03-06T02:08:53.910Z,4.32
2023-03-06T02:11:24.150Z,4.30
2023-03-06T02:13:55.432Z,4.23
2023-03-06T02:16:27.455Z,4.27
2023-03-06T02:18:55.645Z,4.31
2023-03-06T02:21:26.333Z,4.21
2023-03-06T02:24:08.080Z,4.19
2023-03-06T02:26:38.715Z,4.11
2023-03-06T02:29:08.612Z,4.16
2023-03-06T02:31:36.580Z,3.91
2023-03-06T02:34:07.264Z,4.02
2023-03-06T02:36:38.730Z,3.93
2023-03-06T02:39:07.838Z,3.95
2023-03-06T02:41:37.153Z,3.95
2023-03-06T02:44:05.102Z,3.97
2023-03-06T02:46:32.898Z,3.91
2023-03-06T02:49:00.520Z,3.98
2023-03-06T02:51:28.393Z,3.89
2023-03-06T02:53:56.174Z,3.93
2023-03-06T02:56:23.967Z,3.94
2023-03-06T02:58:53.092Z,3.86
2023-03-06T03:01:21.990Z,3.89
2023-03-06T03:03:49.702Z,3.92
2023-03-06T03:06:17.374Z,3.95
2023-03-06T03:08:45.557Z,3.90
2023-03-06T03:11:13.556Z,3.94
2023-03-06T03:13:44.215Z,3.67
2023-03-06T03:16:21.284Z,3.76
2023-03-06T03:18:50.962Z,3.81
2023-03-06T03:21:21.066Z,3.77
2023-03-06T03:23:49.658Z,3.92
2023-03-06T03:26:19.446Z,3.93
2023-03-06T03:28:57.609Z,4.01
2023-03-06T03:31:26.630Z,3.94
2023-03-06T03:33:54.349Z,3.92
2023-03-06T03:36:23.428Z,3.92
2023-03-06T03:38:51.241Z,3.93
2023-03-06T03:41:19.472Z,3.96
2023-03-06T03:43:47.145Z,3.84
2023-03-06T03:46:15.321Z,3.95
2023-03-06T03:48:44.616Z,3.95
2023-03-06T03:51:39.550Z,3.67
2023-03-06T03:54:07.723Z,3.72
2023-03-06T03:56:41.718Z,3.87
2023-03-06T03:59:26.535Z,3.93
2023-03-06T04:02:29.805Z,3.94
2023-03-06T04:05:14.884Z,3.89
2023-03-06T04:07:43.698Z,3.94
2023-03-06T04:10:13.689Z,3.87
2023-03-06T04:12:42.072Z,3.75
2023-03-06T04:15:12.060Z,3.87
2023-03-06T04:17:40.330Z,3.78
2023-03-06T04:20:14.435Z,3.85
2023-03-06T04:22:42.544Z,3.94
2023-03-06T04:25:12.128Z,3.89
2023-03-06T04:27:39.940Z,3.90
2023-03-06T04:30:09.225Z,3.82
2023-03-06T04:32:37.473Z,3.71
2023-03-06T04:35:06.729Z,3.80
2023-03-06T04:37:44.418Z,3.75
2023-03-06T04:40:19.428Z,3.70
2023-03-06T04:42:47.357Z,3.74
2023-03-06T04:45:15.914Z,3.76
2023-03-06T04:47:44.492Z,3.86
2023-03-06T04:50:12.946Z,3.91
2023-03-06T04:52:41.286Z,3.61
2023-03-06T04:55:13.350Z,3.83
2023-03-06T04:57:43.348Z,3.86
2023-03-06T05:00:15.829Z,3.81
2023-03-06T05:02:43.876Z,3.74
2023-03-06T05:05:12.515Z,3.64
2023-03-06T05:07:40.472Z,3.77
2023-03-06T05:10:12.221Z,3.81
2023-03-06T05:12:40.231Z,3.78
2023-03-06T05:15:09.016Z,3.61
2023-03-06T05:17:36.879Z,3.65
2023-03-06T05:20:06.138Z,3.60
2023-03-06T05:22:34.262Z,3.53
2023-03-06T05:25:01.860Z,3.50
2023-03-06T05:27:30.920Z,3.46
2023-03-06T05:29:58.756Z,3.54
2023-03-06T05:32:26.431Z,3.46
2023-03-06T05:34:54.159Z,3.55
2023-03-06T05:37:22.947Z,3.63
2023-03-06T05:39:51.131Z,3.53
2023-03-06T05:42:18.814Z,3.61
2023-03-06T05:44:47.802Z,3.54
2023-03-06T05:47:15.669Z,3.51
2023-03-06T05:49:43.269Z,3.55
2023-03-06T05:52:13.456Z,3.51
2023-03-06T05:54:41.120Z,3.49
2023-03-06T05:57:08.780Z,3.39
2023-03-06T05:59:36.538Z,3.45
2023-03-06T06:02:05.778Z,3.48
2023-03-06T06:04:33.688Z,3.38
2023-03-06T06:07:02.090Z,3.47
2023-03-06T06:09:30.207Z,3.44
2023-03-06T06:12:00.280Z,3.41
2023-03-06T06:14:27.978Z,3.39
2023-03-06T06:16:56.326Z,3.47
2023-03-06T06:19:25.715Z,3.38
2023-03-06T06:21:54.820Z,3.51
2023-03-06T06:24:24.310Z,3.45
2023-03-06T06:26:52.803Z,3.52
2023-03-06T06:29:20.967Z,3.57
2023-03-06T06:31:48.793Z,3.44
2023-03-06T06:34:16.838Z,3.49
2023-03-06T06:36:45.829Z,3.53
2023-03-06T06:39:16.213Z,3.43
2023-03-06T06:41:59.391Z,3.49
2023-03-06T06:44:30.296Z,3.57
2023-03-06T06:49:46.488Z,3.56
2023-03-06T06:52:15.492Z,3.64
2023-03-06T06:54:43.112Z,3.64
2023-03-06T06:57:11.623Z,3.50
2023-03-06T06:59:39.332Z,3.72
2023-03-06T07:02:07.129Z,3.69
2023-03-06T07:04:35.193Z,3.76
2023-03-06T07:07:03.466Z,3.68
2023-03-06T07:09:32.479Z,3.64
2023-03-06T07:12:00.201Z,3.44
2023-03-06T07:14:28.025Z,3.67
2023-03-06T07:16:55.664Z,3.66
2023-03-06T07:19:23.407Z,3.57
2023-03-06T07:21:51.654Z,3.62
2023-03-06T07:24:19.256Z,3.65
2023-03-06T07:26:48.556Z,3.66
2023-03-06T07:29:16.723Z,3.66
2023-03-06T07:31:44.688Z,3.76
2023-03-06T07:34:14.190Z,3.78
2023-03-06T07:36:42.303Z,3.93
2023-03-06T07:39:10.660Z,3.89
2023-03-06T07:41:38.306Z,4.01
2023-03-06T07:44:07.642Z,4.03
2023-03-06T07:46:35.277Z,4.34
2023-03-06T07:49:02.969Z,4.40
2023-03-06T07:51:30.670Z,4.73
2023-03-06T07:53:58.326Z,4.98
2023-03-06T07:56:26.023Z,5.13
2023-03-06T07:58:55.334Z,5.22
2023-03-06T08:01:25.131Z,5.31
2023-03-06T08:03:53.218Z,5.26
2023-03-06T08:06:23.538Z,5.25
2023-03-06T08:08:52.913Z,5.14
2023-03-06T08:11:22.586Z,5.00
2023-03-06T08:13:52.511Z,5.12
2023-03-06T08:16:21.233Z,5.07
2023-03-06T08:18:50.826Z,4.71
2023-03-06T08:21:20.625Z,4.55
2023-03-06T08:23:49.100Z,4.73
2023-03-06T08:26:19.763Z,4.73
2023-03-06T08:28:47.879Z,4.40
2023-03-06T08:31:24.784Z,4.65
2023-03-06T08:33:54.163Z,4.53
2023-03-06T08:36:22.412Z,4.59
2023-03-06T08:38:50.791Z,4.69
2023-03-06T08:41:20.281Z,4.78
2023-03-06T08:43:49.162Z,4.63
2023-03-06T08:46:18.704Z,4.27
2023-03-06T08:48:47.670Z,4.49
2023-03-06T08:51:18.130Z,4.52
2023-03-06T08:53:45.995Z,4.65
2023-03-06T08:56:18.608Z,4.62
2023-03-06T08:58:46.976Z,4.57
2023-03-06T09:01:16.226Z,4.48
2023-03-06T09:03:44.450Z,4.34
2023-03-06T09:06:12.509Z,4.06
2023-03-06T09:08:43.138Z,4.48
2023-03-06T09:11:11.403Z,4.51
2023-03-06T09:13:39.300Z,4.62
2023-03-06T09:16:08.884Z,4.63
2023-03-06T09:18:36.572Z,4.56
2023-03-06T09:21:04.739Z,4.60
2023-03-06T09:23:32.721Z,4.55
2023-03-06T09:26:03.255Z,4.87
2023-03-06T09:28:31.082Z,4.91
2023-03-06T09:30:59.252Z,4.91
2023-03-06T09:33:28.648Z,5.11
2023-03-06T09:35:57.724Z,5.19
2023-03-06T09:38:27.913Z,5.23
2023-03-06T09:41:12.835Z,5.15
2023-03-06T09:43:43.892Z,5.23
2023-03-06T09:46:23.692Z,5.36
2023-03-06T09:49:10.102Z,5.63
2023-03-06T09:51:51.134Z,5.46
2023-03-06T09:54:27.599Z,5.48
2023-03-06T09:56:56.591Z,5.81
2023-03-06T09:59:26.156Z,5.78
2023-03-06T10:02:01.620Z,5.81
2023-03-06T10:04:39.371Z,6.03
2023-03-06T10:07:14.008Z,6.35
2023-03-06T10:09:47.333Z,6.42
2023-03-06T10:12:28.525Z,6.68
2023-03-06T10:15:15.050Z,6.74
2023-03-06T10:17:43.698Z,6.78
2023-03-06T10:20:24.437Z,6.65
2023-03-06T10:23:11.140Z,6.47
2023-03-06T10:25:47.325Z,6.30
2023-03-06T10:28:18.931Z,6.05
2023-03-06T10:30:52.666Z,6.19
2023-03-06T10:33:34.418Z,6.15
2023-03-06T10:36:02.293Z,5.94
2023-03-06T10:38:37.674Z,6.36
2023-03-06T10:41:09.431Z,6.35
2023-03-06T10:43:41.085Z,6.22
2023-03-06T10:46:11.549Z,6.20
2023-03-06T10:48:42.081Z,6.17
2023-03-06T10:51:19.048Z,6.37
2023-03-06T10:53:53.479Z,6.34
2023-03-06T10:56:32.742Z,6.46
2023-03-06T10:59:10.246Z,6.82
2023-03-06T11:01:38.774Z,6.83
2023-03-06T11:04:22.725Z,6.74
2023-03-06T11:07:06.562Z,6.56
2023-03-06T11:09:34.641Z,6.80
2023-03-06T11:12:21.774Z,6.55
2023-03-06T11:15:09.384Z,6.56
2023-03-06T11:17:39.315Z,6.77
2023-03-06T11:20:18.222Z,6.71
2023-03-06T11:22:49.560Z,7.10
2023-03-06T11:25:20.873Z,7.01
2023-03-06T11:27:56.688Z,7.06
2023-03-06T11:30:31.216Z,7.08
2023-03-06T11:33:02.365Z,7.25
2023-03-06T11:35:35.288Z,7.54
2023-03-06T11:38:12.274Z,7.35
2023-03-06T11:40:44.359Z,7.38
2023-03-06T11:43:20.492Z,7.27
2023-03-06T11:45:58.031Z,7.45
2023-03-06T11:48:31.696Z,7.44
2023-03-06T11:51:07.324Z,7.43
2023-03-06T11:53:37.787Z,7.13
2023-03-06T11:56:22.654Z,6.98
2023-03-06T11:59:01.726Z,7.06
2023-03-06T12:01:36.158Z,6.92
2023-03-06T12:04:32.887Z,6.51
2023-03-06T12:07:12.287Z,6.36
2023-03-06T12:09:47.458Z,6.21
2023-03-06T12:12:45.289Z,6.12
2023-03-06T12:15:36.633Z,6.10
2023-03-06T12:18:20.321Z,6.22
2023-03-06T12:20:58.621Z,6.34
2023-03-06T12:23:46.425Z,6.33
2023-03-06T12:26:37.111Z,6.18
2023-03-06T12:29:23.529Z,6.41
2023-03-06T12:32:01.903Z,6.46
2023-03-06T12:34:45.456Z,6.58
2023-03-06T12:37:25.235Z,6.54
2023-03-06T12:40:14.318Z,6.57
2023-03-06T12:43:01.583Z,6.74
2023-03-06T12:45:32.753Z,6.76
2023-03-06T12:48:01.962Z,6.25
2023-03-06T12:50:32.767Z,6.39
2023-03-06T12:53:03.910Z,6.38
2023-03-06T12:55:39.609Z,6.64
2023-03-06T12:58:35.419Z,6.89
2023-03-06T13:01:06.063Z,7.38
2023-03-06T13:03:49.408Z,7.19
2023-03-06T13:06:45.060Z,7.42
2023-03-06T13:09:20.720Z,7.63
2023-03-06T13:12:05.488Z,7.46
2023-03-06T13:14:54.848Z,7.45
2023-03-06T13:17:28.587Z,7.35
2023-03-06T13:20:27.833Z,7.32
2023-03-06T13:22:57.151Z,7.58
2023-03-06T13:25:49.625Z,7.29
2023-03-06T13:28:25.859Z,7.16
2023-03-06T13:30:53.702Z,7.45
2023-03-06T13:33:54.659Z,7.22
2023-03-06T13:36:28.214Z,7.03
2023-03-06T13:39:12.595Z,7.24
2023-03-06T13:41:58.849Z,7.33
2023-03-06T13:44:49.559Z,7.16
2023-03-06T13:48:10.668Z,7.29
2023-03-06T13:50:36.309Z,7.11
2023-03-06T13:53:19.546Z,7.18
2023-03-06T13:56:00.858Z,7.17
2023-03-06T13:58:44.038Z,7.09
2023-03-06T14:01:37.204Z,7.04
2023-03-06T14:04:27.225Z,6.53
2023-03-06T14:07:06.519Z,6.60
2023-03-06T14:09:36.618Z,6.55
2023-03-06T14:12:15.793Z,5.94
2023-03-06T14:14:45.635Z,6.18
2023-03-06T14:17:23.942Z,6.16
2023-03-06T14:19:52.443Z,6.03
2023-03-06T14:22:24.731Z,6.05
2023-03-06T14:24:59.686Z,6.26
2023-03-06T14:27:43.800Z,6.32
2023-03-06T14:30:15.557Z,6.38
2023-03-06T14:32:44.287Z,6.55
2023-03-06T14:35:29.394Z,6.35
2023-03-06T14:37:59.883Z,6.15
2023-03-06T14:40:32.334Z,6.30
2023-03-06T14:43:26.684Z,6.22
2023-03-06T14:45:57.377Z,6.10
2023-03-06T14:48:27.090Z,6.08
2023-03-06T14:50:56.785Z,5.90
2023-03-06T14:53:27.935Z,5.68
2023-03-06T14:55:58.902Z,5.66
2023-03-06T14:58:36.512Z,5.61
2023-03-06T15:01:06.967Z,5.65
2023-03-06T15:03:42.383Z,5.64
2023-03-06T15:06:12.910Z,5.67
2023-03-06T15:08:43.630Z,5.75
2023-03-06T15:11:11.340Z,5.49
2023-03-06T15:13:41.260Z,5.53
2023-03-06T15:16:23.474Z,5.44
2023-03-06T15:18:58.975Z,5.29
2023-03-06T15:21:28.529Z,5.25
2023-03-06T15:23:58.056Z,5.21
2023-03-06T15:26:29.518Z,5.12
2023-03-06T15:29:12.761Z,5.08
2023-03-06T15:31:41.905Z,5.17
2023-03-06T15:34:23.297Z,5.25
2023-03-06T15:36:54.974Z,5.01
2023-03-06T15:39:35.181Z,5.06
2023-03-06T15:42:05.958Z,4.91
2023-03-06T15:44:35.188Z,5.04
2023-03-06T15:47:08.764Z,5.17
2023-03-06T15:49:37.686Z,5.05
2023-03-06T15:52:05.366Z,5.07
2023-03-06T15:54:33.255Z,5.23
2023-03-06T15:57:01.204Z,5.12
2023-03-06T15:59:32.878Z,4.90
2023-03-06T16:02:05.479Z,4.97
2023-03-06T16:04:33.349Z,4.93
2023-03-06T16:07:01.023Z,4.97
2023-03-06T16:09:28.637Z,4.95
2023-03-06T16:11:56.233Z,4.87
2023-03-06T16:14:24.448Z,4.88
2023-03-06T16:16:53.879Z,4.75
2023-03-06T16:19:26.644Z,4.80
2023-03-06T16:21:55.582Z,4.79
2023-03-06T16:24:23.555Z,4.77
2023-03-06T16:26:52.749Z,4.68
2023-03-06T16:29:22.365Z,4.46
2023-03-06T16:31:50.116Z,4.74
2023-03-06T16:34:20.020Z,4.81
2023-03-06T16:36:50.242Z,4.92
2023-03-06T16:39:20.195Z,4.72
2023-03-06T16:41:49.286Z,4.68
2023-03-06T16:44:17.296Z,4.78
2023-03-06T16:46:47.403Z,4.77
2023-03-06T16:49:17.304Z,4.87
2023-03-06T16:51:45.622Z,4.85
2023-03-06T16:54:14.658Z,4.81
2023-03-06T16:56:42.908Z,4.91
2023-03-06T16:59:11.123Z,4.65
2023-03-06T17:01:40.516Z,4.71
2023-03-06T17:04:08.234Z,4.67
2023-03-06T17:06:36.610Z,4.69
2023-03-06T17:09:04.960Z,4.49
2023-03-06T17:11:34.138Z,4.71
2023-03-06T17:14:02.598Z,4.60
2023-03-06T17:16:30.231Z,4.63
2023-03-06T17:18:58.124Z,4.76
2023-03-06T17:21:26.922Z,4.73
2023-03-06T17:23:54.497Z,4.75
2023-03-06T17:26:22.179Z,4.24
2023-03-06T17:28:51.195Z,4.66
2023-03-06T17:31:20.916Z,4.72
2023-03-06T17:33:48.853Z,4.66
2023-03-06T17:36:17.319Z,4.53
2023-03-06T17:38:45.182Z,4.62
2023-03-06T17:41:13.364Z,4.54
2023-03-06T17:43:41.553Z,4.62
2023-03-06T17:46:12.592Z,4.44
2023-03-06T17:48:40.825Z,4.41
2023-03-06T17:51:09.252Z,4.63
2023-03-06T17:53:37.244Z,4.47
2023-03-06T17:56:06.564Z,4.34
2023-03-06T17:58:34.763Z,4.55
2023-03-06T18:01:12.911Z,4.50
2023-03-06T18:03:44.230Z,4.50
2023-03-06T18:06:12.051Z,4.47
2023-03-06T18:08:40.864Z,4.47
2023-03-06T18:11:10.558Z,4.53
2023-03-06T18:13:40.877Z,4.47
2023-03-06T18:16:09.400Z,4.20
2023-03-06T18:18:38.778Z,4.50
2023-03-06T18:21:08.188Z,4.47
2023-03-06T18:23:36.864Z,4.28
2023-03-06T18:26:11.400Z,4.30
2023-03-06T18:28:42.304Z,4.31
2023-03-06T18:31:15.526Z,4.48
2023-03-06T18:33:44.706Z,4.24
2023-03-06T18:36:12.309Z,4.26
2023-03-06T18:38:41.269Z,4.36
2023-03-06T18:41:09.511Z,4.28
2023-03-06T18:43:37.442Z,4.27
2023-03-06T18:46:06.557Z,4.27
2023-03-06T18:48:34.411Z,4.10
2023-03-06T18:51:06.816Z,4.12
2023-03-06T18:53:34.747Z,4.19
2023-03-06T18:56:03.277Z,3.86
2023-03-06T18:58:30.918Z,4.06
2023-03-06T19:00:59.681Z,3.75
2023-03-06T19:03:27.901Z,3.98
2023-03-06T19:05:55.759Z,4.07
2023-03-06T19:08:24.848Z,3.93
2023-03-06T19:10:52.660Z,3.89
2023-03-06T19:13:20.311Z,3.99
2023-03-06T19:15:49.841Z,3.91
2023-03-06T19:18:19.109Z,3.83
2023-03-06T19:20:46.742Z,4.00
2023-03-06T19:23:14.397Z,3.98
2023-03-06T19:25:43.425Z,3.98
2023-03-06T19:28:11.058Z,4.13
2023-03-06T19:30:40.908Z,3.82
2023-03-06T19:33:08.541Z,4.09
2023-03-06T19:35:37.552Z,3.98
2023-03-06T19:38:05.580Z,4.05
2023-03-06T19:40:34.002Z,4.18
2023-03-06T19:43:03.936Z,4.11
2023-03-06T19:45:31.545Z,4.32
2023-03-06T19:48:00.800Z,4.17
2023-03-06T19:50:29.655Z,4.17
2023-03-06T19:52:57.653Z,4.18
2023-03-06T19:55:26.322Z,4.17
2023-03-06T19:57:54.299Z,4.00
2023-03-06T20:00:23.558Z,4.12
2023-03-06T20:02:51.332Z,4.14
2023-03-06T20:05:19.065Z,4.12
2023-03-06T20:07:46.727Z,4.27
2023-03-06T20:10:14.377Z,4.25
2023-03-06T20:12:42.040Z,4.14
2023-03-06T20:15:10.590Z,4.03
2023-03-06T20:17:41.027Z,4.10
2023-03-06T20:20:10.761Z,4.12
2023-03-06T20:22:38.611Z,4.04
2023-03-06T20:25:06.992Z,3.98
2023-03-06T20:27:34.937Z,3.95
2023-03-06T20:30:02.665Z,3.96
2023-03-06T20:32:30.769Z,4.03
2023-03-06T20:34:59.914Z,4.14
2023-03-06T20:37:27.619Z,4.05
2023-03-06T20:39:55.239Z,4.05
2023-03-06T20:42:22.893Z,3.90
2023-03-06T20:44:50.488Z,3.92
2023-03-06T20:47:18.200Z,3.97
2023-03-06T20:49:45.855Z,4.06
2023-03-06T20:52:14.979Z,3.98
2023-03-06T20:54:42.625Z,3.95
2023-03-06T20:57:10.402Z,3.99
2023-03-06T20:59:38.101Z,3.96
2023-03-06T21:02:06.467Z,3.60
2023-03-06T21:04:34.183Z,3.89
2023-03-06T21:07:01.805Z,3.98
2023-03-06T21:09:32.756Z,3.98
2023-03-06T21:12:00.417Z,3.98
2023-03-06T21:14:28.044Z,3.93
2023-03-06T21:16:55.678Z,4.08
2023-03-06T21:19:23.326Z,4.01
2023-03-06T21:21:51.182Z,4.05
2023-03-06T21:24:20.965Z,3.87
2023-03-06T21:26:51.127Z,3.98
2023-03-06T21:29:18.842Z,3.89
2023-03-06T21:31:46.506Z,3.89
2023-03-06T21:34:14.217Z,3.82
2023-03-06T21:36:42.862Z,4.01
2023-03-06T21:39:11.484Z,3.98
2023-03-06T21:41:40.423Z,4.01
2023-03-06T21:44:09.502Z,3.83
2023-03-06T21:46:37.219Z,3.98
2023-03-06T21:49:06.062Z,3.91
2023-03-06T21:51:34.205Z,3.85
2023-03-06T21:54:02.990Z,4.00
2023-03-06T21:56:30.694Z,3.98
2023-03-06T21:58:58.432Z,4.06
2023-03-06T22:01:29.317Z,4.01
2023-03-06T22:03:58.304Z,4.03
2023-03-06T22:06:27.917Z,3.85
2023-03-06T22:08:57.460Z,4.03
2023-03-06T22:11:26.674Z,3.96
2023-03-06T22:13:54.561Z,3.85
2023-03-06T22:16:22.435Z,3.87
2023-03-06T22:18:53.042Z,3.79
2023-03-06T22:21:22.790Z,3.91
2023-03-06T22:23:51.060Z,3.85
2023-03-06T22:26:18.974Z,3.83
2023-03-06T22:28:46.874Z,3.91
2023-03-06T22:31:16.149Z,3.98
2023-03-06T22:33:43.966Z,3.70
2023-03-06T22:36:15.381Z,3.99
2023-03-06T22:38:44.760Z,3.91
2023-03-06T22:41:13.453Z,3.81
2023-03-06T22:43:42.474Z,3.74
2023-03-06T22:46:12.111Z,3.95
2023-03-06T22:48:39.774Z,3.95
2023-03-06T22:51:10.292Z,3.99
2023-03-06T22:53:39.875Z,3.86
2023-03-06T22:56:10.775Z,3.87
2023-03-06T22:58:38.904Z,3.86
2023-03-06T23:01:08.434Z,3.68
2023-03-06T23:03:37.315Z,3.84
2023-03-06T23:06:09.596Z,3.83
2023-03-06T23:08:38.678Z,3.74
2023-03-06T23:11:09.259Z,3.84
2023-03-06T23:13:56.033Z,3.80
2023-03-06T23:16:42.252Z,3.74
2023-03-06T23:19:28.466Z,3.94
2023-03-06T23:22:14.885Z,3.96
2023-03-06T23:25:02.652Z,3.91
2023-03-06T23:27:30.278Z,4.00
2023-03-06T23:29:58.921Z,3.91
2023-03-06T23:32:26.746Z,3.91
2023-03-06T23:34:54.377Z,3.86
2023-03-06T23:37:22.069Z,3.91
2023-03-06T23:39:49.891Z,3.86
2023-03-06T23:42:19.854Z,3.72
2023-03-06T23:44:47.475Z,3.75
2023-03-06T23:47:17.104Z,3.85
2023-03-06T23:49:44.784Z,3.84
2023-03-06T23:52:12.561Z,3.89
2023-03-06T23:54:40.314Z,3.85
2023-03-06T23:57:07.974Z,3.75
2023-03-06T23:59:37.030Z,3.89
